Strona główna
METAR-TAF:

METAR-TAF

Lotnisko :

Port lotniczy Umeå

Umeå, Szwecja

Szerokość geograficzna: 63-48N, Długość geograficzna: 020-17E, wysokość: 7 m

Aktualna obserwacja pogody

Raport powstał 39 minut temu, godzina 00:20 UTC
Wiatr 8 kt od zachodnio-północny zachód
Temperatura -4°C
Wilgotność 68%
Ciśnienie 1020 hPa
Widzialność 10 km lub więcej

METAR: ESNU 050020Z AUTO 30008KT 9999 NCD M04/M09 Q1020 R14/09//95

czas: 02:59 (00:59 UTC)

Prognoza

Raport powstał 1 godzina i 29 minut temu, godzina 23:30 UTC
Prognoza ważna od 05 godzina 00 UTC do 05 godzina 09 UTC
Wiatr 9 kt od zachód
Widzialność 10 km lub więcej
Brak chmur poniżej 1500 m i brak chmur cumulonimbus

TAF: ESNU 042330Z 0500/0509 28009KT CAVOK

Obserwacja i prognoza pogody dla ponad 4000 lotnisk (raport METAR i TAF).

Dostępne stacje oznaczono żółtymi i czerwonymi punktami na mapie.

Najedź kursorem aby zobaczyć nazwę stacji.

Kliknij aby zobaczyć obserwacje i prognozy pogody.

Aby zmienić mapę: kliknij na zielony przycisk z czarnym krzyżykiem, aby powiększyć; na zielony przycisk z myślnikiem, aby pomniejszyć; na zielone strzałki, aby przejść do map sąsiednich.


METAR-TAF: